createdAt,value
2024-04-15T00:01:48.008Z,10.05
2024-04-15T00:04:14.970Z,9.99
2024-04-15T00:06:41.652Z,10.01
2024-04-15T00:09:08.310Z,9.99
2024-04-15T00:11:35.037Z,9.98
2024-04-15T00:14:01.661Z,9.92
2024-04-15T00:16:28.376Z,9.91
2024-04-15T00:18:55.166Z,9.86
2024-04-15T00:21:21.808Z,9.83
2024-04-15T00:23:48.524Z,9.87
2024-04-15T00:26:15.241Z,9.84
2024-04-15T00:28:41.914Z,9.85
2024-04-15T00:31:08.572Z,9.81
2024-04-15T00:33:35.406Z,9.76
2024-04-15T00:36:02.194Z,9.66
2024-04-15T00:38:28.832Z,9.57
2024-04-15T00:40:55.689Z,9.50
2024-04-15T00:43:22.398Z,9.40
2024-04-15T00:45:49.140Z,9.34
2024-04-15T00:48:16.075Z,9.27
2024-04-15T00:50:42.794Z,9.21
2024-04-15T00:53:09.471Z,9.24
2024-04-15T00:55:36.194Z,9.20
2024-04-15T00:58:02.965Z,9.15
2024-04-15T01:00:29.684Z,9.14
2024-04-15T01:02:56.393Z,9.09
2024-04-15T01:05:23.032Z,9.07
2024-04-15T01:07:49.697Z,9.05
2024-04-15T01:10:16.444Z,8.99
2024-04-15T01:12:43.159Z,9.01
2024-04-15T01:15:09.822Z,8.97
2024-04-15T01:17:36.562Z,8.94
2024-04-15T01:20:03.177Z,8.88
2024-04-15T01:22:31.319Z,8.88
2024-04-15T01:24:58.108Z,8.92
2024-04-15T01:27:24.731Z,8.91
2024-04-15T01:29:51.347Z,8.92
2024-04-15T01:32:18.140Z,8.80
2024-04-15T01:34:44.966Z,8.88
2024-04-15T01:37:11.693Z,8.73
2024-04-15T01:39:38.554Z,8.54
2024-04-15T01:42:05.242Z,8.38
2024-04-15T01:44:31.908Z,8.33
2024-04-15T01:46:58.692Z,8.21
2024-04-15T01:49:25.368Z,8.13
2024-04-15T01:51:52.042Z,8.15
2024-04-15T01:54:18.729Z,8.13
2024-04-15T01:56:45.345Z,8.06
2024-04-15T01:59:12.047Z,8.11
2024-04-15T02:01:38.816Z,8.11
2024-04-15T02:04:05.512Z,8.08
2024-04-15T02:06:32.202Z,7.97
2024-04-15T02:08:58.991Z,7.92
2024-04-15T02:11:25.754Z,7.94
2024-04-15T02:13:52.596Z,7.90
2024-04-15T02:16:19.675Z,7.89
2024-04-15T02:18:46.494Z,7.96
2024-04-15T02:21:13.178Z,8.00
2024-04-15T02:23:39.870Z,8.02
2024-04-15T02:26:06.521Z,8.06
2024-04-15T02:28:33.164Z,8.08
2024-04-15T02:30:59.874Z,8.09
2024-04-15T02:33:26.534Z,8.08
2024-04-15T02:35:53.159Z,8.03
2024-04-15T02:38:19.913Z,7.97
2024-04-15T02:40:46.542Z,7.82
2024-04-15T02:43:13.274Z,7.72
2024-04-15T02:45:40.159Z,7.67
2024-04-15T02:48:06.820Z,7.64
2024-04-15T02:50:33.480Z,7.68
2024-04-15T02:53:00.163Z,7.61
2024-04-15T02:55:26.993Z,7.49
2024-04-15T02:57:53.694Z,7.48
2024-04-15T03:00:20.357Z,7.41
2024-04-15T03:02:47.019Z,7.39
2024-04-15T03:05:13.747Z,7.34
2024-04-15T03:07:40.422Z,7.34
2024-04-15T03:10:07.069Z,7.35
2024-04-15T03:12:33.764Z,7.35
2024-04-15T03:15:00.566Z,7.36
2024-04-15T03:17:27.296Z,7.36
2024-04-15T03:19:53.930Z,7.38
2024-04-15T03:22:20.660Z,7.40
2024-04-15T03:24:47.344Z,7.46
2024-04-15T03:27:13.979Z,7.46
2024-04-15T03:29:40.669Z,7.49
2024-04-15T03:32:07.419Z,7.50
2024-04-15T03:34:34.185Z,7.47
2024-04-15T03:37:00.907Z,7.56
2024-04-15T03:39:27.519Z,7.52
2024-04-15T03:41:54.150Z,7.56
2024-04-15T03:44:20.856Z,7.61
2024-04-15T03:46:47.830Z,7.54
2024-04-15T03:49:14.505Z,7.47
2024-04-15T03:51:41.236Z,7.49
2024-04-15T03:54:07.862Z,7.50
2024-04-15T03:56:34.498Z,7.53
2024-04-15T03:59:01.391Z,7.55
2024-04-15T04:01:28.195Z,7.58
2024-04-15T04:03:55.104Z,7.63
2024-04-15T04:06:21.869Z,7.73
2024-04-15T04:08:48.554Z,7.98
2024-04-15T04:11:15.296Z,8.22
2024-04-15T04:13:42.085Z,8.20
2024-04-15T04:16:08.775Z,8.17
2024-04-15T04:18:35.526Z,8.33
2024-04-15T04:21:02.281Z,8.42
2024-04-15T04:23:28.956Z,8.28
2024-04-15T04:25:55.580Z,8.21
2024-04-15T04:28:22.386Z,8.21
2024-04-15T04:30:49.122Z,8.09
2024-04-15T04:33:15.914Z,8.01
2024-04-15T04:35:42.616Z,8.17
2024-04-15T04:38:09.255Z,8.16
2024-04-15T04:40:35.901Z,8.25
2024-04-15T04:43:02.777Z,8.17
2024-04-15T04:45:29.506Z,8.11
2024-04-15T04:47:56.262Z,8.30
2024-04-15T04:50:23.111Z,8.23
2024-04-15T04:52:49.912Z,8.39
2024-04-15T04:55:16.654Z,8.63
2024-04-15T04:57:43.428Z,8.88
2024-04-15T05:00:10.099Z,9.39
2024-04-15T05:02:36.745Z,9.30
2024-04-15T05:05:03.512Z,10.63
2024-04-15T05:07:30.472Z,12.41
2024-04-15T05:09:57.192Z,13.06
2024-04-15T05:12:23.989Z,11.31
2024-04-15T05:14:50.576Z,11.96
2024-04-15T05:17:17.265Z,14.85
2024-04-15T05:19:43.981Z,16.62
2024-04-15T05:22:10.659Z,17.56
2024-04-15T05:24:37.296Z,14.66
2024-04-15T05:27:04.117Z,12.87
2024-04-15T05:29:30.724Z,14.74
2024-04-15T05:31:57.363Z,14.87
2024-04-15T05:34:24.115Z,15.11
2024-04-15T05:36:50.787Z,12.71
2024-04-15T05:39:17.404Z,12.81
2024-04-15T05:41:44.104Z,12.47
2024-04-15T05:44:10.727Z,12.79
2024-04-15T05:46:37.334Z,11.96
2024-04-15T05:49:04.031Z,11.60
2024-04-15T05:51:30.715Z,11.63
2024-04-15T05:53:57.371Z,10.71
2024-04-15T05:56:24.029Z,10.63
2024-04-15T05:58:50.771Z,11.06
2024-04-15T06:01:17.441Z,11.29
2024-04-15T06:03:44.359Z,12.09
2024-04-15T06:06:11.037Z,11.97
2024-04-15T06:08:37.709Z,11.39
2024-04-15T06:11:04.493Z,11.16
2024-04-15T06:13:31.138Z,11.39
2024-04-15T06:15:57.882Z,12.31
2024-04-15T06:18:24.649Z,13.47
2024-04-15T06:20:51.277Z,14.24
2024-04-15T06:23:17.880Z,14.72
2024-04-15T06:25:44.634Z,12.98
2024-04-15T06:28:11.318Z,12.96
2024-04-15T06:30:37.972Z,13.01
2024-04-15T06:33:04.787Z,14.49
2024-04-15T06:35:31.464Z,11.78
2024-04-15T06:37:58.070Z,11.60
2024-04-15T06:40:24.812Z,14.48
2024-04-15T06:42:51.487Z,13.22
2024-04-15T06:45:18.185Z,17.19
2024-04-15T06:47:44.900Z,18.62
2024-04-15T06:50:11.581Z,15.58
2024-04-15T06:52:38.206Z,15.74
2024-04-15T06:55:04.923Z,18.39
2024-04-15T06:57:31.704Z,18.18
2024-04-15T06:59:58.400Z,15.57
2024-04-15T07:02:25.324Z,11.69
2024-04-15T07:04:52.103Z,10.86
2024-04-15T07:07:18.917Z,10.30
2024-04-15T07:09:45.656Z,10.65
2024-04-15T07:12:12.309Z,9.97
2024-04-15T07:14:39.013Z,9.81
2024-04-15T07:17:05.816Z,10.59
2024-04-15T07:19:32.495Z,15.40
2024-04-15T07:21:59.238Z,18.75
2024-04-15T07:24:25.977Z,16.87
2024-04-15T07:26:52.616Z,18.50
2024-04-15T07:29:19.278Z,17.24
2024-04-15T07:31:46.197Z,18.01
2024-04-15T07:34:12.978Z,16.21
2024-04-15T07:36:39.612Z,14.37
2024-04-15T07:39:06.325Z,12.15
2024-04-15T07:41:32.957Z,11.69
2024-04-15T07:43:59.596Z,11.10
2024-04-15T07:46:26.378Z,10.97
2024-04-15T07:48:53.029Z,11.57
2024-04-15T07:51:19.764Z,12.15
2024-04-15T07:53:46.558Z,16.58
2024-04-15T07:56:13.205Z,14.91
2024-04-15T07:58:39.860Z,12.01
2024-04-15T08:01:06.829Z,12.98
2024-04-15T08:03:33.523Z,11.90
2024-04-15T08:06:00.229Z,13.43
2024-04-15T08:08:26.904Z,13.80
2024-04-15T08:10:53.664Z,14.80
2024-04-15T08:13:20.332Z,14.35
2024-04-15T08:15:47.091Z,13.03
2024-04-15T08:18:13.848Z,12.12
2024-04-15T08:20:40.544Z,14.41
2024-04-15T08:23:07.250Z,17.56
2024-04-15T08:25:33.986Z,17.24
2024-04-15T08:28:00.702Z,17.89
2024-04-15T08:30:27.433Z,17.83
2024-04-15T08:32:54.169Z,14.83
2024-04-15T08:35:20.848Z,14.09
2024-04-15T08:37:47.591Z,12.74
2024-04-15T08:40:14.281Z,12.10
2024-04-15T08:42:40.905Z,11.27
2024-04-15T08:45:07.611Z,11.34
2024-04-15T08:47:34.443Z,11.70
2024-04-15T08:50:01.227Z,11.20
2024-04-15T08:52:27.984Z,12.55
2024-04-15T08:54:54.827Z,12.73
2024-04-15T08:57:21.577Z,12.19
2024-04-15T08:59:48.348Z,13.13
2024-04-15T09:02:14.994Z,14.13
2024-04-15T09:04:41.988Z,13.15
2024-04-15T09:07:09.014Z,11.74
2024-04-15T09:09:35.710Z,11.42
2024-04-15T09:12:02.444Z,13.14
2024-04-15T09:14:29.319Z,13.48
2024-04-15T09:16:55.982Z,13.17
2024-04-15T09:19:22.677Z,16.43
2024-04-15T09:21:49.492Z,16.26
2024-04-15T09:24:16.126Z,14.02
2024-04-15T09:26:43.448Z,15.28
2024-04-15T09:29:10.678Z,14.52
2024-04-15T09:31:37.454Z,13.48
2024-04-15T09:34:04.187Z,12.40
2024-04-15T09:36:31.000Z,12.42
2024-04-15T09:38:57.883Z,13.06
2024-04-15T09:41:24.521Z,11.82
2024-04-15T09:43:51.427Z,11.12
2024-04-15T09:46:18.098Z,10.98
2024-04-15T09:48:44.761Z,11.00
2024-04-15T09:51:11.532Z,11.17
2024-04-15T09:53:38.337Z,11.21
2024-04-15T09:56:07.688Z,11.41
2024-04-15T09:58:35.221Z,11.67
2024-04-15T10:01:01.954Z,11.60
2024-04-15T10:03:28.640Z,11.69
2024-04-15T10:05:55.367Z,11.91
2024-04-15T10:08:22.320Z,11.76
2024-04-15T10:10:49.026Z,11.27
2024-04-15T10:13:15.869Z,11.49
2024-04-15T10:15:42.560Z,11.16
2024-04-15T10:18:09.254Z,11.32
2024-04-15T10:20:36.003Z,11.13
2024-04-15T10:23:04.788Z,11.00
2024-04-15T10:25:32.981Z,10.61
2024-04-15T10:27:59.763Z,10.56
2024-04-15T10:30:26.490Z,10.52
2024-04-15T10:32:53.185Z,10.40
2024-04-15T10:35:20.067Z,10.25
2024-04-15T10:37:46.824Z,10.19
2024-04-15T10:40:13.636Z,10.07
2024-04-15T10:42:40.327Z,10.03
2024-04-15T10:45:06.977Z,10.11
2024-04-15T10:47:33.712Z,10.07
2024-04-15T10:50:00.498Z,10.17
2024-04-15T10:52:27.120Z,10.25
2024-04-15T10:54:53.852Z,10.30
2024-04-15T10:57:20.758Z,10.27
2024-04-15T10:59:49.772Z,10.01
2024-04-15T11:02:19.098Z,9.82
2024-04-15T11:04:45.932Z,9.79
2024-04-15T11:07:12.723Z,9.75
2024-04-15T11:09:39.428Z,9.74
2024-04-15T11:12:06.143Z,9.84
2024-04-15T11:14:32.777Z,9.79
2024-04-15T11:16:59.568Z,9.78
2024-04-15T11:19:26.523Z,9.90
2024-04-15T11:21:53.702Z,10.00
2024-04-15T11:24:20.783Z,9.99
2024-04-15T11:26:47.524Z,9.84
2024-04-15T11:29:14.165Z,9.83
2024-04-15T11:31:41.849Z,9.78
2024-04-15T11:34:08.757Z,9.84
2024-04-15T11:36:35.514Z,9.89
2024-04-15T11:39:02.248Z,9.82
2024-04-15T11:41:29.046Z,9.83
2024-04-15T11:43:55.850Z,9.86
2024-04-15T11:46:22.816Z,9.85
2024-04-15T11:48:49.796Z,9.67
2024-04-15T11:51:16.570Z,9.72
2024-04-15T11:53:43.275Z,9.68
2024-04-15T11:56:10.086Z,9.62
2024-04-15T11:58:36.928Z,9.69
2024-04-15T12:01:03.896Z,9.76
2024-04-15T12:03:30.787Z,9.69
2024-04-15T12:05:57.536Z,9.65
2024-04-15T12:08:24.235Z,9.62
2024-04-15T12:10:51.037Z,9.46
2024-04-15T12:13:17.794Z,9.51
2024-04-15T12:15:44.653Z,9.53
2024-04-15T12:18:11.509Z,9.61
2024-04-15T12:20:38.236Z,9.66
2024-04-15T12:23:04.980Z,9.71
2024-04-15T12:25:31.865Z,9.67
2024-04-15T12:27:58.590Z,9.72
2024-04-15T12:30:25.314Z,9.67
2024-04-15T12:32:52.193Z,9.67
2024-04-15T12:35:18.954Z,9.49
2024-04-15T12:37:45.833Z,9.39
2024-04-15T12:40:12.900Z,9.27
2024-04-15T12:42:39.953Z,9.02
2024-04-15T12:45:06.853Z,8.92
2024-04-15T12:47:33.927Z,8.85
2024-04-15T12:50:00.966Z,8.79
2024-04-15T12:52:27.945Z,8.83
2024-04-15T12:54:54.990Z,8.98
2024-04-15T12:57:21.810Z,9.00
2024-04-15T12:59:48.563Z,9.18
2024-04-15T13:02:15.520Z,9.30
2024-04-15T13:04:42.415Z,9.57
2024-04-15T13:07:09.236Z,9.68
2024-04-15T13:09:36.200Z,9.57
2024-04-15T13:12:02.902Z,9.56
2024-04-15T13:14:29.625Z,9.40
2024-04-15T13:16:56.443Z,9.03
2024-04-15T13:19:23.412Z,8.69
2024-04-15T13:21:50.240Z,8.49
2024-04-15T13:24:17.119Z,8.23
2024-04-15T13:26:44.035Z,7.66
2024-04-15T13:29:10.998Z,7.08
2024-04-15T13:31:37.818Z,6.75
2024-04-15T13:34:05.048Z,6.75
2024-04-15T13:36:32.254Z,6.83
2024-04-15T13:38:59.140Z,6.96
2024-04-15T13:41:25.963Z,7.05
2024-04-15T13:43:52.697Z,7.04
2024-04-15T13:46:19.569Z,7.09
2024-04-15T13:48:46.446Z,7.31
2024-04-15T13:51:13.296Z,7.44
2024-04-15T13:53:40.134Z,7.60
2024-04-15T13:56:06.848Z,7.93
2024-04-15T13:58:33.612Z,8.26
2024-04-15T14:01:00.557Z,8.34
2024-04-15T14:03:27.554Z,8.21
2024-04-15T14:05:54.368Z,8.03
2024-04-15T14:08:21.843Z,8.03
2024-04-15T14:10:49.284Z,7.92
2024-04-15T14:13:16.129Z,8.00
2024-04-15T14:15:43.660Z,8.25
2024-04-15T14:18:10.820Z,8.52
2024-04-15T14:20:37.635Z,8.52
2024-04-15T14:23:04.507Z,8.73
2024-04-15T14:25:31.281Z,8.78
2024-04-15T14:27:58.064Z,8.87
2024-04-15T14:30:24.938Z,9.03
2024-04-15T14:32:51.893Z,9.10
2024-04-15T14:35:19.071Z,8.95
2024-04-15T14:37:45.870Z,8.91
2024-04-15T14:40:20.025Z,8.92
2024-04-15T14:42:50.272Z,8.94
2024-04-15T14:45:17.018Z,9.12
2024-04-15T14:47:43.827Z,9.29
2024-04-15T14:50:10.679Z,9.19
2024-04-15T14:52:37.471Z,8.93
2024-04-15T14:55:04.417Z,8.91
2024-04-15T14:57:31.654Z,8.85
2024-04-15T14:59:58.430Z,8.81
2024-04-15T15:02:25.228Z,8.75
2024-04-15T15:04:52.054Z,8.69
2024-04-15T15:07:18.840Z,8.67
2024-04-15T15:09:45.662Z,8.69
2024-04-15T15:12:13.355Z,8.76
2024-04-15T15:14:40.558Z,8.79
2024-04-15T15:17:07.270Z,8.82
2024-04-15T15:19:34.125Z,8.80
2024-04-15T15:22:00.903Z,8.85
2024-04-15T15:24:27.848Z,8.59
2024-04-15T15:26:54.723Z,8.02
2024-04-15T15:29:21.445Z,7.12
2024-04-15T15:31:48.186Z,6.70
2024-04-15T15:34:15.253Z,6.45
2024-04-15T15:36:42.009Z,6.22
2024-04-15T15:39:08.843Z,6.17
2024-04-15T15:41:35.707Z,6.07
2024-04-15T15:44:02.472Z,6.14
2024-04-15T15:46:29.330Z,6.19
2024-04-15T15:48:56.407Z,6.21
2024-04-15T15:51:23.353Z,6.42
2024-04-15T15:53:50.210Z,6.30
2024-04-15T15:56:17.242Z,6.26
2024-04-15T15:58:46.389Z,6.22
2024-04-15T16:01:13.611Z,6.11
2024-04-15T16:03:40.464Z,6.08
2024-04-15T16:06:07.239Z,5.88
2024-04-15T16:08:33.956Z,5.73
2024-04-15T16:11:01.104Z,5.68
2024-04-15T16:13:28.411Z,5.74
2024-04-15T16:15:55.339Z,5.64
2024-04-15T16:18:22.200Z,5.64
2024-04-15T16:20:48.956Z,5.55
2024-04-15T16:23:15.765Z,5.54
2024-04-15T16:25:42.599Z,5.52
2024-04-15T16:28:09.398Z,5.59
2024-04-15T16:30:36.160Z,5.66
2024-04-15T16:33:03.140Z,5.75
2024-04-15T16:35:29.988Z,5.76
2024-04-15T16:37:56.707Z,5.77
2024-04-15T16:40:23.567Z,5.71
2024-04-15T16:42:50.358Z,5.68
2024-04-15T16:45:17.081Z,5.72
2024-04-15T16:47:44.122Z,5.81
2024-04-15T16:50:11.158Z,5.81
2024-04-15T16:52:37.857Z,5.83
2024-04-15T16:55:04.939Z,5.88
2024-04-15T16:57:31.919Z,5.96
2024-04-15T16:59:58.721Z,5.97
2024-04-15T17:02:25.588Z,5.96
2024-04-15T17:04:54.645Z,5.95
2024-04-15T17:07:21.489Z,6.02
2024-04-15T17:09:48.372Z,6.12
2024-04-15T17:12:15.185Z,6.12
2024-04-15T17:14:41.874Z,5.63
2024-04-15T17:17:10.892Z,5.42
2024-04-15T17:19:39.236Z,5.38
2024-04-15T17:22:06.289Z,5.44
2024-04-15T17:24:33.498Z,5.44
2024-04-15T17:27:00.823Z,5.49
2024-04-15T17:29:28.637Z,5.46
2024-04-15T17:31:55.422Z,5.56
2024-04-15T17:34:22.260Z,5.63
2024-04-15T17:36:49.215Z,5.63
2024-04-15T17:39:16.025Z,5.64
2024-04-15T17:41:42.765Z,5.68
2024-04-15T17:44:12.103Z,5.72
2024-04-15T17:46:40.408Z,5.72
2024-04-15T17:49:07.187Z,5.65
2024-04-15T17:51:33.912Z,5.67
2024-04-15T17:54:00.814Z,5.67
2024-04-15T17:56:27.704Z,5.63
2024-04-15T17:58:55.449Z,5.56
2024-04-15T18:01:22.509Z,5.49
2024-04-15T18:03:49.275Z,5.41
2024-04-15T18:06:16.691Z,5.40
2024-04-15T18:08:43.700Z,5.33
2024-04-15T18:11:10.511Z,5.32
2024-04-15T18:13:37.383Z,5.32
2024-04-15T18:16:04.495Z,5.31
2024-04-15T18:18:34.791Z,5.34
2024-04-15T18:21:01.555Z,5.35
2024-04-15T18:23:28.398Z,5.40
2024-04-15T18:25:55.271Z,5.41
2024-04-15T18:28:22.102Z,5.44
2024-04-15T18:30:52.170Z,5.52
2024-04-15T18:33:19.094Z,5.51
2024-04-15T18:35:45.944Z,5.53
2024-04-15T18:38:12.875Z,5.55
2024-04-15T18:40:40.509Z,5.58
2024-04-15T18:43:07.541Z,5.58
2024-04-15T18:45:34.577Z,5.62
2024-04-15T18:48:01.752Z,5.62
2024-04-15T18:50:29.063Z,5.58
2024-04-15T18:52:56.007Z,5.46
2024-04-15T18:55:22.717Z,5.49
2024-04-15T18:57:49.459Z,5.54
2024-04-15T19:00:16.476Z,5.69
2024-04-15T19:02:43.293Z,5.72
2024-04-15T19:05:10.050Z,5.72
2024-04-15T19:07:37.944Z,5.74
2024-04-15T19:10:04.868Z,5.77
2024-04-15T19:12:32.496Z,5.85
2024-04-15T19:17:32.334Z,5.95
2024-04-15T19:19:59.511Z,5.95
2024-04-15T19:22:27.727Z,5.99
2024-04-15T19:24:54.553Z,6.12
2024-04-15T19:27:21.392Z,6.13
2024-04-15T19:29:48.153Z,6.14
2024-04-15T19:32:15.046Z,6.04
2024-04-15T19:34:41.961Z,6.01
2024-04-15T19:37:11.025Z,5.97
2024-04-15T19:39:37.766Z,6.05
2024-04-15T19:42:04.781Z,6.02
2024-04-15T19:44:31.537Z,6.03
2024-04-15T19:46:58.234Z,6.03
2024-04-15T19:49:25.058Z,6.08
2024-04-15T19:51:51.873Z,6.07
2024-04-15T19:54:18.675Z,6.08
2024-04-15T19:56:45.468Z,6.13
2024-04-15T19:59:12.176Z,6.18
2024-04-15T20:01:38.960Z,6.20
2024-04-15T20:04:05.874Z,6.15
2024-04-15T20:06:32.861Z,6.17
2024-04-15T20:08:59.586Z,6.23
2024-04-15T20:11:26.439Z,6.12
2024-04-15T20:13:53.317Z,6.14
2024-04-15T20:16:20.101Z,6.13
2024-04-15T20:18:47.041Z,6.08
2024-04-15T20:21:13.862Z,6.06
2024-04-15T20:23:40.563Z,6.08
2024-04-15T20:26:07.360Z,6.13
2024-04-15T20:28:34.234Z,6.05
2024-04-15T20:31:01.074Z,6.07
2024-04-15T20:33:27.969Z,6.07
2024-04-15T20:35:54.701Z,6.00
2024-04-15T20:38:21.432Z,6.01
2024-04-15T20:40:48.273Z,6.06
2024-04-15T20:43:15.037Z,6.10
2024-04-15T20:45:41.804Z,6.13
2024-04-15T20:48:08.747Z,6.10
2024-04-15T20:50:35.482Z,6.14
2024-04-15T20:53:02.233Z,6.06
2024-04-15T20:55:29.194Z,6.05
2024-04-15T20:57:56.050Z,6.06
2024-04-15T21:00:22.748Z,6.07
2024-04-15T21:02:49.563Z,6.19
2024-04-15T21:05:16.271Z,6.21
2024-04-15T21:07:43.004Z,6.18
2024-04-15T21:10:09.830Z,6.17
2024-04-15T21:12:36.666Z,6.13
2024-04-15T21:15:03.429Z,6.14
2024-04-15T21:17:30.703Z,6.13
2024-04-15T21:19:57.470Z,6.12
2024-04-15T21:22:24.198Z,6.09
2024-04-15T21:24:50.972Z,6.08
2024-04-15T21:27:17.692Z,6.09
2024-04-15T22:03:30.066Z,6.19
2024-04-15T22:05:56.795Z,6.18
2024-04-15T22:08:23.522Z,6.17
2024-04-15T22:10:50.455Z,6.17
2024-04-15T22:13:17.348Z,6.17
2024-04-15T22:15:44.073Z,6.13
2024-04-15T22:18:11.009Z,6.13
2024-04-15T22:20:37.767Z,6.13
2024-04-15T22:23:04.474Z,6.13
2024-04-15T22:25:31.406Z,6.12
2024-04-15T22:27:58.293Z,6.05
2024-04-15T22:30:25.031Z,6.00
2024-04-15T22:32:51.981Z,5.97
2024-04-15T22:35:18.769Z,5.92
2024-04-15T22:37:45.442Z,5.95
2024-04-15T22:40:12.217Z,5.99
2024-04-15T22:42:38.930Z,5.96
2024-04-15T22:45:05.671Z,5.92
2024-04-15T22:47:32.588Z,5.90
2024-04-15T22:49:59.394Z,5.85
2024-04-15T22:52:26.108Z,5.91
2024-04-15T22:54:52.975Z,5.99
2024-04-15T22:57:19.724Z,6.03
2024-04-15T22:59:46.520Z,6.10
2024-04-15T23:02:13.431Z,6.16
2024-04-15T23:04:40.348Z,6.16
2024-04-15T23:07:07.184Z,6.18
2024-04-15T23:09:34.023Z,6.21
2024-04-15T23:12:00.728Z,6.10
2024-04-15T23:14:27.466Z,6.01
2024-04-15T23:16:54.323Z,5.98
2024-04-15T23:19:21.153Z,5.98
2024-04-15T23:21:48.016Z,5.95
2024-04-15T23:24:14.813Z,5.89
2024-04-15T23:26:41.532Z,5.91
2024-04-15T23:29:08.253Z,5.86
2024-04-15T23:31:35.192Z,5.85
2024-04-15T23:34:02.004Z,5.80
2024-04-15T23:36:28.729Z,5.80
2024-04-15T23:38:55.489Z,5.74
2024-04-15T23:41:22.286Z,5.80
2024-04-15T23:43:49.027Z,5.85
2024-04-15T23:46:15.891Z,5.85
2024-04-15T23:48:42.709Z,5.86
2024-04-15T23:51:09.401Z,5.85
2024-04-15T23:53:36.312Z,5.85
2024-04-15T23:56:03.022Z,5.91
2024-04-15T23:58:29.870Z,5.98
